sensor_id;sensor_type;location;lat;lon;timestamp;pressure;altitude;pressure_sealevel;temperature;humidity
71239;BME280;61342;51.442;7.370;2023-04-28T00:00:03;99826.72;;;11.64;58.26
71239;BME280;61342;51.442;7.370;2023-04-28T00:01:04;99813.97;;;11.60;58.50
71239;BME280;61342;51.442;7.370;2023-04-28T00:02:05;99812.41;;;11.59;58.25
71239;BME280;61342;51.442;7.370;2023-04-28T00:03:05;99815.00;;;11.62;58.49
71239;BME280;61342;51.442;7.370;2023-04-28T00:04:05;99814.53;;;11.58;58.48
71239;BME280;61342;51.442;7.370;2023-04-28T00:05:06;99805.34;;;11.60;58.83
71239;BME280;61342;51.442;7.370;2023-04-28T00:06:07;99804.78;;;11.61;58.62
71239;BME280;61342;51.442;7.370;2023-04-28T00:07:07;99806.66;;;11.59;58.69
71239;BME280;61342;51.442;7.370;2023-04-28T00:08:08;99813.44;;;11.61;58.81
71239;BME280;61342;51.442;7.370;2023-04-28T00:09:08;99812.97;;;11.57;59.08
71239;BME280;61342;51.442;7.370;2023-04-28T00:10:10;99807.44;;;11.59;59.13
71239;BME280;61342;51.442;7.370;2023-04-28T00:11:10;99814.53;;;11.58;59.11
71239;BME280;61342;51.442;7.370;2023-04-28T00:12:11;99808.53;;;11.56;59.36
71239;BME280;61342;51.442;7.370;2023-04-28T00:13:11;99818.72;;;11.57;59.41
71239;BME280;61342;51.442;7.370;2023-04-28T00:14:12;99823.16;;;11.58;59.54
71239;BME280;61342;51.442;7.370;2023-04-28T00:15:12;99813.53;;;11.56;59.74
71239;BME280;61342;51.442;7.370;2023-04-28T00:16:12;99821.91;;;11.54;59.93
71239;BME280;61342;51.442;7.370;2023-04-28T00:17:13;99812.72;;;11.55;60.40
71239;BME280;61342;51.442;7.370;2023-04-28T00:18:13;99814.28;;;11.56;60.57
71239;BME280;61342;51.442;7.370;2023-04-28T00:19:13;99810.41;;;11.54;60.68
71239;BME280;61342;51.442;7.370;2023-04-28T00:20:14;99797.13;;;11.51;60.95
71239;BME280;61342;51.442;7.370;2023-04-28T00:21:14;99796.91;;;11.49;61.38
71239;BME280;61342;51.442;7.370;2023-04-28T00:22:14;99797.34;;;11.53;61.33
71239;BME280;61342;51.442;7.370;2023-04-28T00:23:15;99784.03;;;11.50;61.83
71239;BME280;61342;51.442;7.370;2023-04-28T00:24:15;99797.38;;;11.48;62.32
71239;BME280;61342;51.442;7.370;2023-04-28T00:25:15;99796.06;;;11.48;62.56
71239;BME280;61342;51.442;7.370;2023-04-28T00:26:16;99787.44;;;11.48;63.00
71239;BME280;61342;51.442;7.370;2023-04-28T00:27:16;99785.88;;;11.48;62.80
71239;BME280;61342;51.442;7.370;2023-04-28T00:28:17;99782.78;;;11.46;63.25
71239;BME280;61342;51.442;7.370;2023-04-28T00:29:17;99783.56;;;11.46;63.40
71239;BME280;61342;51.442;7.370;2023-04-28T00:30:17;99783.34;;;11.44;63.33
71239;BME280;61342;51.442;7.370;2023-04-28T00:31:18;99776.78;;;11.44;63.91
71239;BME280;61342;51.442;7.370;2023-04-28T00:32:18;99772.91;;;11.41;64.09
71239;BME280;61342;51.442;7.370;2023-04-28T00:33:19;99772.38;;;11.43;64.03
71239;BME280;61342;51.442;7.370;2023-04-28T00:34:19;99766.16;;;11.39;64.12
71239;BME280;61342;51.442;7.370;2023-04-28T00:35:20;99774.25;;;11.40;64.29
71239;BME280;61342;51.442;7.370;2023-04-28T00:36:20;99771.91;;;11.39;64.51
71239;BME280;61342;51.442;7.370;2023-04-28T00:37:21;99767.22;;;11.36;64.94
71239;BME280;61342;51.442;7.370;2023-04-28T00:38:21;99781.31;;;11.39;65.13
71239;BME280;61342;51.442;7.370;2023-04-28T00:39:24;99784.97;;;11.40;65.62
71239;BME280;61342;51.442;7.370;2023-04-28T00:40:33;99780.31;;;11.37;65.81
71239;BME280;61342;51.442;7.370;2023-04-28T00:41:33;99783.72;;;11.35;66.01
71239;BME280;61342;51.442;7.370;2023-04-28T00:42:34;99780.31;;;11.37;65.93
71239;BME280;61342;51.442;7.370;2023-04-28T00:43:45;99768.34;;;11.33;66.35
71239;BME280;61342;51.442;7.370;2023-04-28T00:44:45;99766.78;;;11.32;65.85
71239;BME280;61342;51.442;7.370;2023-04-28T00:45:48;99768.59;;;11.35;66.21
71239;BME280;61342;51.442;7.370;2023-04-28T00:46:49;99765.47;;;11.33;66.73
71239;BME280;61342;51.442;7.370;2023-04-28T00:47:49;99769.91;;;11.34;66.88
71239;BME280;61342;51.442;7.370;2023-04-28T00:48:50;99758.94;;;11.32;67.04
71239;BME280;61342;51.442;7.370;2023-04-28T00:49:50;99762.59;;;11.33;67.53
71239;BME280;61342;51.442;7.370;2023-04-28T00:50:51;99752.03;;;11.22;67.49
71239;BME280;61342;51.442;7.370;2023-04-28T00:51:51;99762.38;;;11.31;67.98
71239;BME280;61342;51.442;7.370;2023-04-28T00:52:52;99768.88;;;11.31;68.10
71239;BME280;61342;51.442;7.370;2023-04-28T00:53:52;99753.50;;;11.29;68.28
71239;BME280;61342;51.442;7.370;2023-04-28T00:54:54;99756.63;;;11.31;68.39
71239;BME280;61342;51.442;7.370;2023-04-28T00:55:55;99750.06;;;11.30;68.84
71239;BME280;61342;51.442;7.370;2023-04-28T00:56:56;99741.78;;;11.27;69.32
71239;BME280;61342;51.442;7.370;2023-04-28T00:57:57;99748.75;;;11.31;69.58
71239;BME280;61342;51.442;7.370;2023-04-28T00:58:57;99752.38;;;11.32;69.97
71239;BME280;61342;51.442;7.370;2023-04-28T00:59:58;99749.28;;;11.30;70.24
71239;BME280;61342;51.442;7.370;2023-04-28T01:01:03;99748.19;;;11.33;70.35
71239;BME280;61342;51.442;7.370;2023-04-28T01:02:04;99742.44;;;11.33;70.89
71239;BME280;61342;51.442;7.370;2023-04-28T01:03:06;99742.75;;;11.29;71.04
71239;BME280;61342;51.442;7.370;2023-04-28T01:04:06;99742.44;;;11.33;71.26
71239;BME280;61342;51.442;7.370;2023-04-28T01:05:08;99748.44;;;11.35;71.39
71239;BME280;61342;51.442;7.370;2023-04-28T01:06:09;99742.69;;;11.35;71.82
71239;BME280;61342;51.442;7.370;2023-04-28T01:07:09;99743.22;;;11.33;72.12
71239;BME280;61342;51.442;7.370;2023-04-28T01:08:10;99742.34;;;11.38;72.26
71239;BME280;61342;51.442;7.370;2023-04-28T01:09:11;99737.38;;;11.39;72.41
71239;BME280;61342;51.442;7.370;2023-04-28T01:10:11;99745.59;;;11.48;72.36
71239;BME280;61342;51.442;7.370;2023-04-28T01:11:11;99747.31;;;11.56;72.35
71239;BME280;61342;51.442;7.370;2023-04-28T01:12:13;99744.25;;;11.67;72.52
71239;BME280;61342;51.442;7.370;2023-04-28T01:13:13;99750.78;;;11.80;72.32
71239;BME280;61342;51.442;7.370;2023-04-28T01:14:14;99749.06;;;11.90;71.86
71239;BME280;61342;51.442;7.370;2023-04-28T01:15:16;99740.19;;;12.01;71.62
71239;BME280;61342;51.442;7.370;2023-04-28T01:16:17;99741.88;;;12.09;71.42
71239;BME280;61342;51.442;7.370;2023-04-28T01:17:17;99745.41;;;12.15;71.41
71239;BME280;61342;51.442;7.370;2023-04-28T01:18:18;99735.91;;;12.20;71.33
71239;BME280;61342;51.442;7.370;2023-04-28T01:19:20;99736.09;;;12.22;70.93
71239;BME280;61342;51.442;7.370;2023-04-28T01:20:23;99740.22;;;12.27;71.13
71239;BME280;61342;51.442;7.370;2023-04-28T01:21:26;99747.31;;;12.26;71.26
71239;BME280;61342;51.442;7.370;2023-04-28T01:22:28;99739.78;;;12.23;71.60
71239;BME280;61342;51.442;7.370;2023-04-28T01:23:29;99735.34;;;12.22;71.79
71239;BME280;61342;51.442;7.370;2023-04-28T01:24:29;99733.34;;;12.17;71.61
71239;BME280;61342;51.442;7.370;2023-04-28T01:25:30;99737.56;;;12.16;72.11
71239;BME280;61342;51.442;7.370;2023-04-28T01:26:30;99732.91;;;12.13;72.14
71239;BME280;61342;51.442;7.370;2023-04-28T01:27:30;99739.00;;;12.09;72.47
71239;BME280;61342;51.442;7.370;2023-04-28T01:28:31;99734.88;;;12.05;72.48
71239;BME280;61342;51.442;7.370;2023-04-28T01:29:31;99738.88;;;12.02;72.70
71239;BME280;61342;51.442;7.370;2023-04-28T01:30:31;99731.91;;;11.98;72.97
71239;BME280;61342;51.442;7.370;2023-04-28T01:31:32;99726.47;;;11.94;73.11
71239;BME280;61342;51.442;7.370;2023-04-28T01:32:32;99727.56;;;11.91;73.46
71239;BME280;61342;51.442;7.370;2023-04-28T01:33:33;99729.44;;;11.89;73.34
71239;BME280;61342;51.442;7.370;2023-04-28T01:34:33;99728.22;;;11.84;73.61
71239;BME280;61342;51.442;7.370;2023-04-28T01:35:33;99733.75;;;11.82;74.05
71239;BME280;61342;51.442;7.370;2023-04-28T01:36:34;99726.22;;;11.79;74.32
71239;BME280;61342;51.442;7.370;2023-04-28T01:37:34;99732.31;;;11.76;74.56
71239;BME280;61342;51.442;7.370;2023-04-28T01:38:34;99733.41;;;11.73;74.55
71239;BME280;61342;51.442;7.370;2023-04-28T01:39:35;99729.53;;;11.70;74.98
71239;BME280;61342;51.442;7.370;2023-04-28T01:40:35;99723.63;;;11.63;75.36
71239;BME280;61342;51.442;7.370;2023-04-28T01:41:35;99731.50;;;11.62;75.42
71239;BME280;61342;51.442;7.370;2023-04-28T01:42:36;99737.03;;;11.60;75.77
71239;BME280;61342;51.442;7.370;2023-04-28T01:43:36;99728.19;;;11.58;75.96
71239;BME280;61342;51.442;7.370;2023-04-28T01:44:37;99730.03;;;11.56;75.91
71239;BME280;61342;51.442;7.370;2023-04-28T01:45:37;99729.25;;;11.55;76.29
71239;BME280;61342;51.442;7.370;2023-04-28T01:46:37;99726.94;;;11.54;76.15
71239;BME280;61342;51.442;7.370;2023-04-28T01:47:38;99724.94;;;11.49;76.75
71239;BME280;61342;51.442;7.370;2023-04-28T01:48:38;99729.09;;;11.48;76.82
71239;BME280;61342;51.442;7.370;2023-04-28T01:49:39;99728.88;;;11.46;76.97
71239;BME280;61342;51.442;7.370;2023-04-28T01:50:39;99735.41;;;11.47;77.34
71239;BME280;61342;51.442;7.370;2023-04-28T01:51:39;99715.91;;;11.40;77.59
71239;BME280;61342;51.442;7.370;2023-04-28T01:52:41;99726.31;;;11.43;77.76
71239;BME280;61342;51.442;7.370;2023-04-28T01:53:41;99731.63;;;11.39;77.97
71239;BME280;61342;51.442;7.370;2023-04-28T01:54:42;99730.84;;;11.38;78.25
71239;BME280;61342;51.442;7.370;2023-04-28T01:56:00;99731.69;;;11.33;78.52
71239;BME280;61342;51.442;7.370;2023-04-28T01:57:29;99724.72;;;11.29;78.83
71239;BME280;61342;51.442;7.370;2023-04-28T01:58:30;99726.28;;;11.30;79.13
71239;BME280;61342;51.442;7.370;2023-04-28T01:59:30;99724.97;;;11.31;79.05
71239;BME280;61342;51.442;7.370;2023-04-28T02:00:30;99726.59;;;11.26;79.93
71239;BME280;61342;51.442;7.370;2023-04-28T02:01:30;99728.16;;;11.27;79.85
71239;BME280;61342;51.442;7.370;2023-04-28T02:02:31;99729.47;;;11.26;80.13
71239;BME280;61342;51.442;7.370;2023-04-28T02:03:31;99726.13;;;11.22;80.38
71239;BME280;61342;51.442;7.370;2023-04-28T02:04:31;99724.56;;;11.21;80.64
71239;BME280;61342;51.442;7.370;2023-04-28T02:05:32;99727.13;;;11.25;80.89
71239;BME280;61342;51.442;7.370;2023-04-28T02:06:32;99723.25;;;11.22;81.02
71239;BME280;61342;51.442;7.370;2023-04-28T02:07:32;99717.81;;;11.19;81.43
71239;BME280;61342;51.442;7.370;2023-04-28T02:08:33;99721.69;;;11.21;81.22
71239;BME280;61342;51.442;7.370;2023-04-28T02:09:33;99729.00;;;11.22;81.93
71239;BME280;61342;51.442;7.370;2023-04-28T02:10:33;99720.94;;;11.21;81.93
71239;BME280;61342;51.442;7.370;2023-04-28T02:11:34;99717.81;;;11.19;82.12
71239;BME280;61342;51.442;7.370;2023-04-28T02:12:34;99728.25;;;11.22;82.57
71239;BME280;61342;51.442;7.370;2023-04-28T02:13:35;99717.81;;;11.19;82.75
71239;BME280;61342;51.442;7.370;2023-04-28T02:14:35;99714.72;;;11.17;82.79
71239;BME280;61342;51.442;7.370;2023-04-28T02:15:42;99711.28;;;11.18;82.92
71239;BME280;61342;51.442;7.370;2023-04-28T02:16:42;99719.63;;;11.22;83.35
71239;BME280;61342;51.442;7.370;2023-04-28T02:17:43;99716.72;;;11.22;83.15
71239;BME280;61342;51.442;7.370;2023-04-28T02:18:43;99718.59;;;11.19;83.46
71239;BME280;61342;51.442;7.370;2023-04-28T02:19:44;99723.25;;;11.22;83.90
71239;BME280;61342;51.442;7.370;2023-04-28T02:20:44;99722.25;;;11.20;83.95
71239;BME280;61342;51.442;7.370;2023-04-28T02:21:44;99726.13;;;11.22;84.33
71239;BME280;61342;51.442;7.370;2023-04-28T02:22:45;99722.50;;;11.22;84.57
71239;BME280;61342;51.442;7.370;2023-04-28T02:23:45;99728.47;;;11.24;84.69
71239;BME280;61342;51.442;7.370;2023-04-28T02:24:45;99726.69;;;11.21;85.06
71239;BME280;61342;51.442;7.370;2023-04-28T02:25:46;99731.88;;;11.22;84.79
71239;BME280;61342;51.442;7.370;2023-04-28T02:26:46;99724.06;;;11.23;85.41
71239;BME280;61342;51.442;7.370;2023-04-28T02:27:46;99723.50;;;11.24;85.40
71239;BME280;61342;51.442;7.370;2023-04-28T02:28:47;99708.97;;;11.17;85.62
71239;BME280;61342;51.442;7.370;2023-04-28T02:29:48;99730.03;;;11.25;86.03
71239;BME280;61342;51.442;7.370;2023-04-28T02:30:48;99719.63;;;11.22;86.30
71239;BME280;61342;51.442;7.370;2023-04-28T02:31:48;99728.47;;;11.24;86.49
71239;BME280;61342;51.442;7.370;2023-04-28T02:32:49;99722.94;;;11.26;86.67
71239;BME280;61342;51.442;7.370;2023-04-28T02:33:49;99720.63;;;11.24;86.42
71239;BME280;61342;51.442;7.370;2023-04-28T02:34:55;99712.53;;;11.23;87.15
71239;BME280;61342;51.442;7.370;2023-04-28T02:36:02;99704.22;;;11.19;87.33
71239;BME280;61342;51.442;7.370;2023-04-28T02:37:03;99713.31;;;11.23;87.71
71239;BME280;61342;51.442;7.370;2023-04-28T02:38:03;99712.53;;;11.23;87.73
71239;BME280;61342;51.442;7.370;2023-04-28T02:39:04;99703.91;;;11.23;88.04
71239;BME280;61342;51.442;7.370;2023-04-28T02:40:05;99704.13;;;11.25;88.17
71239;BME280;61342;51.442;7.370;2023-04-28T02:41:06;99695.50;;;11.25;88.19
71239;BME280;61342;51.442;7.370;2023-04-28T02:42:08;99701.25;;;11.25;88.07
71239;BME280;61342;51.442;7.370;2023-04-28T02:43:08;99699.69;;;11.24;88.14
71239;BME280;61342;51.442;7.370;2023-04-28T02:44:08;99693.94;;;11.24;88.04
71239;BME280;61342;51.442;7.370;2023-04-28T02:45:09;99689.84;;;11.19;88.19
71239;BME280;61342;51.442;7.370;2023-04-28T02:46:10;99697.06;;;11.26;87.96
71239;BME280;61342;51.442;7.370;2023-04-28T02:47:10;99693.06;;;11.29;88.39
71239;BME280;61342;51.442;7.370;2023-04-28T02:48:11;99694.38;;;11.28;88.06
71239;BME280;61342;51.442;7.370;2023-04-28T02:49:11;99697.50;;;11.30;88.38
71239;BME280;61342;51.442;7.370;2023-04-28T02:50:12;99693.31;;;11.31;88.16
71239;BME280;61342;51.442;7.370;2023-04-28T02:51:12;99696.97;;;11.31;88.10
71239;BME280;61342;51.442;7.370;2023-04-28T02:52:13;99698.50;;;11.32;87.79
71239;BME280;61342;51.442;7.370;2023-04-28T02:53:13;99697.72;;;11.32;88.14
71239;BME280;61342;51.442;7.370;2023-04-28T02:54:14;99693.53;;;11.33;88.06
71239;BME280;61342;51.442;7.370;2023-04-28T02:55:15;99698.28;;;11.30;88.05
71239;BME280;61342;51.442;7.370;2023-04-28T02:56:22;99698.81;;;11.29;88.03
71239;BME280;61342;51.442;7.370;2023-04-28T02:57:23;99690.44;;;11.31;88.07
71239;BME280;61342;51.442;7.370;2023-04-28T02:58:23;99691.41;;;11.33;87.67
71239;BME280;61342;51.442;7.370;2023-04-28T02:59:24;99699.72;;;11.37;88.03
71239;BME280;61342;51.442;7.370;2023-04-28T03:00:24;99689.53;;;11.36;87.90
71239;BME280;61342;51.442;7.370;2023-04-28T03:01:25;99701.84;;;11.36;87.91
71239;BME280;61342;51.442;7.370;2023-04-28T03:02:25;99697.63;;;11.37;87.78
71239;BME280;61342;51.442;7.370;2023-04-28T03:03:26;99693.97;;;11.37;88.15
71239;BME280;61342;51.442;7.370;2023-04-28T03:04:26;99697.63;;;11.37;87.83
71239;BME280;61342;51.442;7.370;2023-04-28T03:05:27;99697.09;;;11.39;88.17
71239;BME280;61342;51.442;7.370;2023-04-28T03:06:27;99690.56;;;11.38;88.27
71239;BME280;61342;51.442;7.370;2023-04-28T03:07:27;99699.19;;;11.38;88.27
71239;BME280;61342;51.442;7.370;2023-04-28T03:08:28;99685.34;;;11.37;88.52
71239;BME280;61342;51.442;7.370;2023-04-28T03:09:28;99699.41;;;11.40;88.53
71239;BME280;61342;51.442;7.370;2023-04-28T03:10:28;99689.22;;;11.39;88.49
71239;BME280;61342;51.442;7.370;2023-04-28T03:11:29;99689.78;;;11.38;88.55
71239;BME280;61342;51.442;7.370;2023-04-28T03:12:29;99684.78;;;11.38;88.52
71239;BME280;61342;51.442;7.370;2023-04-28T03:13:29;99697.31;;;11.41;88.72
71239;BME280;61342;51.442;7.370;2023-04-28T03:14:30;99694.44;;;11.41;88.60
71239;BME280;61342;51.442;7.370;2023-04-28T03:15:30;99701.75;;;11.42;88.58
71239;BME280;61342;51.442;7.370;2023-04-28T03:16:31;99695.19;;;11.41;88.77
71239;BME280;61342;51.442;7.370;2023-04-28T03:17:31;99692.31;;;11.41;88.74
71239;BME280;61342;51.442;7.370;2023-04-28T03:18:32;99690.78;;;11.40;89.03
71239;BME280;61342;51.442;7.370;2023-04-28T03:19:32;99688.47;;;11.39;89.18
71239;BME280;61342;51.442;7.370;2023-04-28T03:20:32;99685.81;;;11.41;89.11
71239;BME280;61342;51.442;7.370;2023-04-28T03:21:33;99689.44;;;11.41;89.30
71239;BME280;61342;51.442;7.370;2023-04-28T03:22:33;99679.03;;;11.38;89.21
71239;BME280;61342;51.442;7.370;2023-04-28T03:23:34;99681.34;;;11.40;89.30
71239;BME280;61342;51.442;7.370;2023-04-28T03:24:34;99677.16;;;11.41;89.24
71239;BME280;61342;51.442;7.370;2023-04-28T03:25:35;99677.16;;;11.41;89.48
71239;BME280;61342;51.442;7.370;2023-04-28T03:26:35;99677.16;;;11.41;89.22
71239;BME280;61342;51.442;7.370;2023-04-28T03:27:36;99678.72;;;11.42;89.51
71239;BME280;61342;51.442;7.370;2023-04-28T03:28:36;99669.09;;;11.39;89.70
71239;BME280;61342;51.442;7.370;2023-04-28T03:29:36;99672.97;;;11.42;89.52
71239;BME280;61342;51.442;7.370;2023-04-28T03:30:37;99682.16;;;11.40;89.72
71239;BME280;61342;51.442;7.370;2023-04-28T03:31:37;99674.53;;;11.43;89.91
71239;BME280;61342;51.442;7.370;2023-04-28T03:32:38;99678.72;;;11.42;90.04
71239;BME280;61342;51.442;7.370;2023-04-28T03:33:38;99670.84;;;11.42;89.99
71239;BME280;61342;51.442;7.370;2023-04-28T03:34:38;99677.63;;;11.45;90.25
71239;BME280;61342;51.442;7.370;2023-04-28T03:35:39;99663.34;;;11.39;90.34
71239;BME280;61342;51.442;7.370;2023-04-28T03:36:39;99671.66;;;11.43;90.47
71239;BME280;61342;51.442;7.370;2023-04-28T03:37:39;99670.09;;;11.42;90.53
71239;BME280;61342;51.442;7.370;2023-04-28T03:38:40;99665.91;;;11.43;90.73
71239;BME280;61342;51.442;7.370;2023-04-28T03:39:40;99664.09;;;11.40;90.75
71239;BME280;61342;51.442;7.370;2023-04-28T03:40:41;99658.59;;;11.42;90.59
71239;BME280;61342;51.442;7.370;2023-04-28T03:41:41;99657.03;;;11.41;90.78
71239;BME280;61342;51.442;7.370;2023-04-28T03:42:41;99663.03;;;11.43;90.81
71239;BME280;61342;51.442;7.370;2023-04-28T03:43:42;99656.25;;;11.40;91.02
71239;BME280;61342;51.442;7.370;2023-04-28T03:44:42;99659.91;;;11.41;90.96
71239;BME280;61342;51.442;7.370;2023-04-28T03:45:42;99661.66;;;11.44;90.99
71239;BME280;61342;51.442;7.370;2023-04-28T03:46:43;99649.94;;;11.42;91.02
71239;BME280;61342;51.442;7.370;2023-04-28T03:47:43;99648.38;;;11.41;91.43
71239;BME280;61342;51.442;7.370;2023-04-28T03:48:43;99652.03;;;11.41;91.22
71239;BME280;61342;51.442;7.370;2023-04-28T03:49:45;99651.50;;;11.43;91.55
71239;BME280;61342;51.442;7.370;2023-04-28T03:50:45;99645.75;;;11.43;91.72
71239;BME280;61342;51.442;7.370;2023-04-28T03:51:45;99645.97;;;11.45;91.65
71239;BME280;61342;51.442;7.370;2023-04-28T03:52:47;99641.53;;;11.44;91.61
71239;BME280;61342;51.442;7.370;2023-04-28T03:53:47;99647.28;;;11.44;91.52
71239;BME280;61342;51.442;7.370;2023-04-28T03:54:47;99635.31;;;11.40;91.64
71239;BME280;61342;51.442;7.370;2023-04-28T03:55:48;99651.97;;;11.47;91.87
71239;BME280;61342;51.442;7.370;2023-04-28T03:56:48;99647.28;;;11.44;91.79
71239;BME280;61342;51.442;7.370;2023-04-28T03:57:48;99656.16;;;11.46;92.03
71239;BME280;61342;51.442;7.370;2023-04-28T03:58:49;99636.00;;;11.46;92.03
71239;BME280;61342;51.442;7.370;2023-04-28T03:59:49;99656.16;;;11.46;91.90
71239;BME280;61342;51.442;7.370;2023-04-28T04:00:50;99647.72;;;11.48;91.96
71239;BME280;61342;51.442;7.370;2023-04-28T04:01:50;99643.88;;;11.45;92.00
71239;BME280;61342;51.442;7.370;2023-04-28T04:02:51;99640.44;;;11.47;92.03
71239;BME280;61342;51.442;7.370;2023-04-28T04:03:51;99635.44;;;11.47;92.14
71239;BME280;61342;51.442;7.370;2023-04-28T04:04:52;99636.22;;;11.48;92.17
71239;BME280;61342;51.442;7.370;2023-04-28T04:05:52;99639.66;;;11.46;92.31
71239;BME280;61342;51.442;7.370;2023-04-28T04:06:54;99637.00;;;11.48;92.31
71239;BME280;61342;51.442;7.370;2023-04-28T04:07:55;99634.13;;;11.48;92.53
71239;BME280;61342;51.442;7.370;2023-04-28T04:08:55;99632.03;;;11.48;92.25
71239;BME280;61342;51.442;7.370;2023-04-28T04:09:55;99623.94;;;11.47;92.37
71239;BME280;61342;51.442;7.370;2023-04-28T04:10:56;99635.63;;;11.54;92.54
71239;BME280;61342;51.442;7.370;2023-04-28T04:11:56;99632.06;;;11.61;92.49
71239;BME280;61342;51.442;7.370;2023-04-28T04:12:58;99622.75;;;11.68;92.08
71239;BME280;61342;51.442;7.370;2023-04-28T04:13:58;99625.44;;;11.79;92.02
71239;BME280;61342;51.442;7.370;2023-04-28T04:14:58;99622.34;;;11.90;91.74
71239;BME280;61342;51.442;7.370;2023-04-28T04:15:59;99622.09;;;12.01;91.25
71239;BME280;61342;51.442;7.370;2023-04-28T04:16:59;99617.00;;;12.07;90.99
71239;BME280;61342;51.442;7.370;2023-04-28T04:18:00;99611.88;;;12.13;90.74
71239;BME280;61342;51.442;7.370;2023-04-28T04:19:00;99612.75;;;12.21;90.05
71239;BME280;61342;51.442;7.370;2023-04-28T04:20:01;99618.97;;;12.25;90.12
71239;BME280;61342;51.442;7.370;2023-04-28T04:21:02;99607.22;;;12.23;89.74
71239;BME280;61342;51.442;7.370;2023-04-28T04:22:02;99613.44;;;12.27;89.46
71239;BME280;61342;51.442;7.370;2023-04-28T04:23:02;99611.31;;;12.27;89.61
71239;BME280;61342;51.442;7.370;2023-04-28T04:24:03;99604.34;;;12.23;89.73
71239;BME280;61342;51.442;7.370;2023-04-28T04:25:04;99604.13;;;12.21;89.83
71239;BME280;61342;51.442;7.370;2023-04-28T04:26:04;99609.13;;;12.20;89.78
71239;BME280;61342;51.442;7.370;2023-04-28T04:27:05;99608.88;;;12.18;89.77
71239;BME280;61342;51.442;7.370;2023-04-28T04:28:06;99597.34;;;12.18;89.99
71239;BME280;61342;51.442;7.370;2023-04-28T04:29:06;99592.72;;;12.15;90.21
71239;BME280;61342;51.442;7.370;2023-04-28T04:30:07;99603.47;;;12.15;90.47
71239;BME280;61342;51.442;7.370;2023-04-28T04:31:07;99601.91;;;12.14;90.60
71239;BME280;61342;51.442;7.370;2023-04-28T04:32:08;99589.97;;;12.10;90.50
71239;BME280;61342;51.442;7.370;2023-04-28T04:33:08;99598.41;;;12.08;90.64
71239;BME280;61342;51.442;7.370;2023-04-28T04:34:08;99597.59;;;12.07;90.90
71239;BME280;61342;51.442;7.370;2023-04-28T04:35:09;99592.97;;;12.05;90.86
71239;BME280;61342;51.442;7.370;2023-04-28T04:36:09;99595.06;;;12.04;90.93
71239;BME280;61342;51.442;7.370;2023-04-28T04:37:10;99592.16;;;12.04;91.23
71239;BME280;61342;51.442;7.370;2023-04-28T04:38:10;99588.66;;;11.98;91.08
71239;BME280;61342;51.442;7.370;2023-04-28T04:39:10;99576.69;;;11.94;91.23
71239;BME280;61342;51.442;7.370;2023-04-28T04:40:11;99587.09;;;11.97;91.61
71239;BME280;61342;51.442;7.370;2023-04-28T04:41:11;99580.22;;;12.00;91.54
71239;BME280;61342;51.442;7.370;2023-04-28T04:42:12;99579.31;;;12.05;91.85
71239;BME280;61342;51.442;7.370;2023-04-28T04:43:12;99575.34;;;12.08;91.67
71239;BME280;61342;51.442;7.370;2023-04-28T04:44:12;99567.25;;;12.07;91.43
71239;BME280;61342;51.442;7.370;2023-04-28T04:45:13;99567.09;;;12.25;91.25
71239;BME280;61342;51.442;7.370;2023-04-28T04:46:13;99574.16;;;12.37;90.85
71239;BME280;61342;51.442;7.370;2023-04-28T04:47:14;99565.41;;;12.42;89.93
71239;BME280;61342;51.442;7.370;2023-04-28T04:48:14;99565.25;;;12.48;90.06
71239;BME280;61342;51.442;7.370;2023-04-28T04:49:14;99560.81;;;12.47;89.35
71239;BME280;61342;51.442;7.370;2023-04-28T04:50:15;99576.84;;;12.55;89.65
71239;BME280;61342;51.442;7.370;2023-04-28T04:51:16;99586.06;;;12.54;89.31
71239;BME280;61342;51.442;7.370;2023-04-28T04:52:16;99573.91;;;12.48;89.20
71239;BME280;61342;51.442;7.370;2023-04-28T04:53:17;99579.88;;;12.50;89.06
71239;BME280;61342;51.442;7.370;2023-04-28T04:54:17;99590.06;;;12.51;88.98
71239;BME280;61342;51.442;7.370;2023-04-28T04:55:17;99583.31;;;12.48;89.29
71239;BME280;61342;51.442;7.370;2023-04-28T04:56:18;99589.66;;;12.47;89.31
71239;BME280;61342;51.442;7.370;2023-04-28T04:57:18;99592.31;;;12.45;89.36
71239;BME280;61342;51.442;7.370;2023-04-28T04:58:19;99590.53;;;12.42;89.60
71239;BME280;61342;51.442;7.370;2023-04-28T04:59:19;99576.06;;;12.34;89.58
71239;BME280;61342;51.442;7.370;2023-04-28T05:00:20;99577.38;;;12.33;89.92
71239;BME280;61342;51.442;7.370;2023-04-28T05:01:20;99584.03;;;12.28;90.12
71239;BME280;61342;51.442;7.370;2023-04-28T05:02:21;99581.72;;;12.27;89.98
71239;BME280;61342;51.442;7.370;2023-04-28T05:03:21;99590.56;;;12.29;89.80
71239;BME280;61342;51.442;7.370;2023-04-28T05:04:22;99584.38;;;12.25;90.15
71239;BME280;61342;51.442;7.370;2023-04-28T05:05:22;99592.81;;;12.23;90.17
71239;BME280;61342;51.442;7.370;2023-04-28T05:06:23;99598.91;;;12.19;90.38
71239;BME280;61342;51.442;7.370;2023-04-28T05:07:24;99588.38;;;12.22;90.03
71239;BME280;61342;51.442;7.370;2023-04-28T05:08:25;99599.72;;;12.20;90.27
71239;BME280;61342;51.442;7.370;2023-04-28T05:09:26;99589.06;;;12.15;90.42
71239;BME280;61342;51.442;7.370;2023-04-28T05:10:26;99605.47;;;12.20;90.23
71239;BME280;61342;51.442;7.370;2023-04-28T05:11:26;99611.22;;;12.20;90.25
71239;BME280;61342;51.442;7.370;2023-04-28T05:12:27;99614.31;;;12.22;90.19
71239;BME280;61342;51.442;7.370;2023-04-28T05:13:27;99615.09;;;12.22;90.56
71239;BME280;61342;51.442;7.370;2023-04-28T05:14:27;99613.31;;;12.19;90.48
71239;BME280;61342;51.442;7.370;2023-04-28T05:15:28;99617.19;;;12.22;90.27
71239;BME280;61342;51.442;7.370;2023-04-28T05:16:28;99617.97;;;12.22;90.32
71239;BME280;61342;51.442;7.370;2023-04-28T05:17:29;99624.72;;;12.25;90.40
71239;BME280;61342;51.442;7.370;2023-04-28T05:18:29;99616.31;;;12.27;89.90
71239;BME280;61342;51.442;7.370;2023-04-28T05:19:30;99606.34;;;12.28;90.15
71239;BME280;61342;51.442;7.370;2023-04-28T05:20:30;99607.09;;;12.28;90.12
71239;BME280;61342;51.442;7.370;2023-04-28T05:21:30;99592.47;;;12.26;90.12